Time;durP1;ratioP1;P1;durP2;ratioP2;P2;SDS_P1;SDS_P2;PMS_P1;PMS_P2;Temp;Humidity;BMP_temperature;BMP_pressure;BME280_temperature;BME280_humidity;BME280_pressure;Samples;Min_cycle;Max_cycle;Signal;HPM_P1;HPM_P2
2022/09/18 00:01:30;;;;;;;35.00;25.27;;;;;;;23.24;100.00;99096.83;1760761;80;21062;-72
2022/09/18 00:04:01;;;;;;;39.70;26.00;;;;;;;23.25;100.00;99089.26;1763980;80;21059;-72
2022/09/18 00:06:33;;;;;;;37.60;24.72;;;;;;;23.16;100.00;99069.38;1756714;80;21125;-72
2022/09/18 00:09:04;;;;;;;34.45;24.60;;;;;;;23.19;100.00;99076.87;1754840;81;21048;-72
2022/09/18 00:11:36;;;;;;;30.57;22.85;;;;;;;23.22;100.00;99067.83;1760065;80;21559;-72
2022/09/18 00:14:10;;;;;;;37.23;23.00;;;;;;;23.15;100.00;99067.73;1751757;81;21055;-72
2022/09/18 00:16:39;;;;;;;27.52;21.42;;;;;;;23.24;100.00;99069.77;1754364;81;21067;-73
2022/09/18 00:19:07;;;;;;;32.93;22.73;;;;;;;23.25;100.00;99066.14;1756848;80;21004;-72
2022/09/18 00:21:36;;;;;;;22.65;17.17;;;;;;;23.23;100.00;99066.82;1749128;81;21020;-72
2022/09/18 00:24:04;;;;;;;22.65;18.70;;;;;;;23.25;100.00;99058.26;1763502;80;21501;-72
2022/09/18 00:26:32;;;;;;;24.72;18.80;;;;;;;23.27;100.00;99062.83;1758342;81;21471;-72
2022/09/18 00:28:59;;;;;;;22.22;17.75;;;;;;;23.29;100.00;99069.51;1751426;81;21075;-72
2022/09/18 00:31:32;;;;;;;23.80;18.02;;;;;;;23.30;100.00;99070.34;1764685;80;20992;-72
2022/09/18 00:34:04;;;;;;;20.25;16.48;;;;;;;23.31;100.00;99060.14;1756556;81;21602;-72
2022/09/18 00:36:31;;;;;;;23.05;17.55;;;;;;;23.27;100.00;99056.27;1749087;81;21003;-72
2022/09/18 00:38:58;;;;;;;25.02;17.23;;;;;;;23.31;100.00;99068.83;1751363;81;21016;-72
2022/09/18 00:41:33;;;;;;;19.75;12.55;;;;;;;23.31;100.00;99073.27;1756745;81;21079;-72
2022/09/18 00:44:42;;;;;;;22.65;14.55;;;;;;;23.30;100.00;99074.28;1751779;81;21028;-72
2022/09/18 00:47:15;;;;;;;15.75;11.33;;;;;;;23.31;100.00;99081.15;1729401;81;21156;-72
2022/09/18 00:49:56;;;;;;;17.35;12.65;;;;;;;23.29;100.00;99073.45;1749896;81;21080;-72
2022/09/18 00:52:28;;;;;;;11.63;9.83;;;;;;;23.31;100.00;99078.02;1754700;81;21510;-72
2022/09/18 00:55:00;;;;;;;19.92;15.75;;;;;;;23.21;100.00;99077.50;1757746;80;21550;-73
2022/09/18 00:57:32;;;;;;;20.27;13.48;;;;;;;23.20;100.00;99078.00;1755283;80;21066;-72
2022/09/18 01:00:03;;;;;;;20.08;13.90;;;;;;;23.25;100.00;99078.75;1735863;81;21108;-73
2022/09/18 01:02:31;;;;;;;19.57;15.15;;;;;;;23.30;100.00;99086.09;1734897;82;21099;-73
2022/09/18 01:04:59;;;;;;;20.82;15.78;;;;;;;23.25;100.00;99080.06;1717587;82;21107;-73
2022/09/18 01:07:49;;;;;;;20.25;16.05;;;;;;;23.17;100.00;99077.05;1727434;82;21514;-73
2022/09/18 01:10:59;;;;;;;21.70;17.07;;;;;;;23.23;100.00;99062.38;1729666;82;21077;-72
2022/09/18 01:13:50;;;;;;;25.12;17.77;;;;;;;23.24;100.00;99059.27;1715816;82;21069;-73
2022/09/18 01:16:35;;;;;;;21.77;17.15;;;;;;;23.20;100.00;99054.88;1741806;81;21056;-73
2022/09/18 01:19:44;;;;;;;23.07;16.05;;;;;;;23.10;100.00;99050.43;1732024;82;21093;-73
2022/09/18 01:22:43;;;;;;;22.98;16.10;;;;;;;23.10;100.00;99045.18;1674854;84;21060;-73
2022/09/18 01:25:23;;;;;;;23.07;16.52;;;;;;;23.12;100.00;99051.06;1727513;82;21072;-73
2022/09/18 01:27:56;;;;;;;22.40;17.27;;;;;;;23.17;100.00;99057.86;1712312;82;21068;-73
2022/09/18 01:30:23;;;;;;;21.75;17.27;;;;;;;23.08;100.00;99053.73;1748021;82;21205;-73
2022/09/18 01:32:58;;;;;;;19.20;15.38;;;;;;;23.11;100.00;99048.10;1743674;82;21085;-73
2022/09/18 01:35:35;;;;;;;21.70;16.70;;;;;;;23.22;100.00;99052.08;1724923;82;21569;-72
2022/09/18 01:38:10;;;;;;;22.60;16.55;;;;;;;23.13;100.00;99048.22;1717976;82;21065;-73
2022/09/18 01:40:49;;;;;;;27.13;16.70;;;;;;;23.24;100.00;99041.70;1726755;82;21046;-73
2022/09/18 01:43:20;;;;;;;23.65;15.88;;;;;;;23.16;100.00;99046.56;1726417;82;21041;-72
2022/09/18 01:45:51;;;;;;;25.10;16.73;;;;;;;23.19;100.00;99042.73;1710017;82;21101;-73
2022/09/18 01:48:30;;;;;;;21.23;16.20;;;;;;;23.12;100.00;99037.42;1733751;82;21588;-73
2022/09/18 01:51:19;;;;;;;23.47;16.15;;;;;;;23.04;100.00;99028.35;1710933;82;21057;-73
2022/09/18 01:53:59;;;;;;;20.92;15.63;;;;;;;23.00;100.00;99023.94;1744091;82;21057;-73
2022/09/18 01:56:36;;;;;;;22.13;15.05;;;;;;;22.91;100.00;99019.80;1716059;82;21081;-74
2022/09/18 01:59:11;;;;;;;25.88;16.02;;;;;;;22.88;100.00;99010.97;1722405;82;21124;-74
2022/09/18 02:01:43;;;;;;;19.90;15.48;;;;;;;22.91;100.00;99007.16;1705421;82;21057;-72
2022/09/18 02:04:21;;;;;;;22.48;15.50;;;;;;;22.84;100.00;99004.47;1723888;82;21072;-73
2022/09/18 02:07:13;;;;;;;30.25;16.17;;;;;;;22.80;100.00;98990.09;1724835;82;21530;-74
2022/09/18 02:09:42;;;;;;;23.12;14.68;;;;;;;22.73;100.00;98991.33;1720678;82;21668;-73
2022/09/18 02:12:14;;;;;;;24.47;14.95;;;;;;;22.64;100.00;98978.50;1702628;82;21100;-73
2022/09/18 02:14:46;;;;;;;21.87;14.98;;;;;;;22.65;100.00;98967.83;1722955;82;21566;-73
2022/09/18 02:17:29;;;;;;;21.40;15.05;;;;;;;22.58;100.00;98951.98;1718083;82;21151;-74
2022/09/18 02:20:09;;;;;;;24.25;15.23;;;;;;;22.54;100.00;98938.12;1729186;82;21064;-74
2022/09/18 02:22:37;;;;;;;21.00;15.53;;;;;;;22.48;100.00;98934.92;1711566;82;21608;-73
2022/09/18 02:25:07;;;;;;;22.35;14.55;;;;;;;22.46;100.00;98915.44;1715562;82;21092;-74
2022/09/18 02:27:37;;;;;;;24.30;14.87;;;;;;;22.55;100.00;98898.61;1735757;82;21104;-74
2022/09/18 02:30:08;;;;;;;24.80;15.90;;;;;;;22.49;100.00;98902.48;1729952;82;21079;-73
2022/09/18 02:32:38;;;;;;;20.65;15.10;;;;;;;22.51;100.00;98902.60;1730910;82;21065;-74
2022/09/18 02:35:08;;;;;;;23.20;15.20;;;;;;;22.55;100.00;98892.05;1729823;82;21576;-74
2022/09/18 02:37:48;;;;;;;23.92;15.53;;;;;;;22.60;100.00;98896.73;1736350;82;21041;-74
2022/09/18 02:40:41;;;;;;;25.45;15.20;;;;;;;22.59;100.00;98909.55;1718502;82;21057;-74
2022/09/18 02:43:42;;;;;;;18.70;13.25;;;;;;;22.56;100.00;98921.20;1723875;82;21098;-73
2022/09/18 02:46:40;;;;;;;22.32;14.53;;;;;;;22.57;100.00;98931.22;1706892;82;21108;-74
2022/09/18 02:49:31;;;;;;;20.48;14.03;;;;;;;22.64;100.00;98941.78;1739767;82;21021;-74
2022/09/18 02:52:14;;;;;;;20.12;13.30;;;;;;;22.54;100.00;98932.88;1725300;82;21066;-74
2022/09/18 02:54:50;;;;;;;24.12;14.45;;;;;;;22.56;100.00;98929.07;1725696;82;21053;-73
2022/09/18 02:57:49;;;;;;;27.58;14.65;;;;;;;22.54;100.00;98914.02;1711246;82;21581;-73
2022/09/18 03:00:18;;;;;;;22.62;14.25;;;;;;;22.55;100.00;98906.48;1715512;82;21545;-73
2022/09/18 03:02:49;;;;;;;23.62;13.83;;;;;;;22.45;100.00;98905.96;1730206;82;21084;-73
2022/09/18 03:05:18;;;;;;;17.25;12.23;;;;;;;22.52;100.00;98906.03;1722100;82;21182;-73
2022/09/18 03:07:50;;;;;;;21.20;13.48;;;;;;;22.56;100.00;98924.33;1716382;82;21533;-72
2022/09/18 03:10:17;;;;;;;21.50;13.05;;;;;;;22.68;100.00;98925.98;1724617;82;21104;-74
2022/09/18 03:12:43;;;;;;;25.68;13.62;;;;;;;22.72;100.00;98912.30;1722393;82;21061;-72
2022/09/18 03:15:11;;;;;;;20.85;13.20;;;;;;;22.68;100.00;98891.38;1730202;82;21026;-73
2022/09/18 03:17:41;;;;;;;20.80;11.48;;;;;;;22.66;100.00;98927.47;1729150;82;21104;-72
2022/09/18 03:20:09;;;;;;;23.90;12.25;;;;;;;22.71;100.00;98932.16;1727101;82;21478;-73
2022/09/18 03:22:36;;;;;;;11.38;9.15;;;;;;;22.75;100.00;98942.59;1712994;82;21081;-73
2022/09/18 03:25:04;;;;;;;21.62;12.70;;;;;;;22.83;100.00;98965.29;1735170;82;21612;-73
2022/09/18 03:27:33;;;;;;;14.15;10.98;;;;;;;22.84;100.00;98971.67;1733693;82;21018;-72
2022/09/18 03:30:01;;;;;;;20.27;12.23;;;;;;;22.81;100.00;98975.99;1738358;82;21057;-73
2022/09/18 03:32:30;;;;;;;19.10;11.75;;;;;;;22.86;100.00;98950.50;1729118;82;21072;-74
2022/09/18 03:34:58;;;;;;;23.18;12.82;;;;;;;22.76;100.00;98916.69;1738652;82;21050;-73
2022/09/18 03:37:27;;;;;;;23.50;12.63;;;;;;;22.82;100.00;98896.27;1737195;82;21510;-73
2022/09/18 03:39:55;;;;;;;22.60;13.00;;;;;;;22.74;100.00;98876.21;1706780;82;21151;-73
2022/09/18 03:42:24;;;;;;;20.82;12.65;;;;;;;22.82;100.00;98879.73;1705830;82;21061;-73
2022/09/18 03:44:51;;;;;;;16.70;11.63;;;;;;;22.71;100.00;98866.11;1726701;82;21053;-74
2022/09/18 03:47:20;;;;;;;20.77;12.58;;;;;;;22.83;100.00;98845.92;1715455;82;21596;-73
2022/09/18 03:49:47;;;;;;;23.32;12.03;;;;;;;22.74;100.00;98822.44;1739691;82;21056;-73
2022/09/18 03:52:15;;;;;;;21.75;12.98;;;;;;;22.84;100.00;98808.20;1736047;82;21089;-74
2022/09/18 03:54:43;;;;;;;25.37;13.68;;;;;;;22.76;100.00;98798.65;1717494;82;21136;-73
2022/09/18 03:57:29;;;;;;;17.07;11.03;;;;;;;22.84;100.00;98815.56;1709839;82;21568;-73
2022/09/18 04:00:16;;;;;;;20.10;12.68;;;;;;;22.93;100.00;98821.48;1723660;82;21046;-73
2022/09/18 04:02:43;;;;;;;26.05;13.85;;;;;;;22.98;100.00;98842.23;1726030;82;22208;-72
2022/09/18 04:05:30;;;;;;;28.85;16.20;;;;;;;23.07;100.00;98853.44;1725306;82;21138;-73
2022/09/18 04:08:17;;;;;;;20.48;13.58;;;;;;;23.10;100.00;98856.20;1736170;82;21022;-73
2022/09/18 04:10:47;;;;;;;23.80;15.85;;;;;;;23.14;100.00;98850.88;1735455;82;21522;-73
2022/09/18 04:13:15;;;;;;;27.90;18.05;;;;;;;23.22;100.00;98882.25;1725824;82;21128;-72
2022/09/18 04:15:44;;;;;;;31.62;17.85;;;;;;;23.30;100.00;98871.61;1724909;82;21069;-73
2022/09/18 04:18:11;;;;;;;34.05;19.65;;;;;;;23.34;100.00;98872.85;1708767;80;21047;-73
2022/09/18 04:20:39;;;;;;;22.70;12.43;;;;;;;23.33;100.00;98868.59;1743684;81;21046;-73
2022/09/18 04:23:06;;;;;;;28.12;17.90;;;;;;;23.42;100.00;98882.89;1739663;81;21023;-73
2022/09/18 04:25:34;;;;;;;34.23;19.42;;;;;;;23.30;100.00;98850.61;1751849;80;21029;-73
2022/09/18 04:28:03;;;;;;;34.50;21.95;;;;;;;23.35;100.00;98849.52;1742692;81;21067;-73
2022/09/18 04:30:31;;;;;;;33.80;22.45;;;;;;;23.37;100.00;98859.84;1742410;81;21077;-73
2022/09/18 04:32:59;;;;;;;29.72;18.77;;;;;;;23.46;100.00;98859.18;1741321;81;21122;-73
2022/09/18 04:35:26;;;;;;;36.95;23.57;;;;;;;23.57;100.00;98859.98;1749221;80;21038;-73
2022/09/18 04:37:54;;;;;;;33.60;22.85;;;;;;;23.70;100.00;98854.83;1740299;81;21001;-72
2022/09/18 04:40:22;;;;;;;48.73;27.73;;;;;;;23.74;100.00;98870.98;1732432;81;21024;-73
2022/09/18 04:42:51;;;;;;;39.00;25.90;;;;;;;23.78;100.00;98865.20;1749719;81;21471;-73
2022/09/18 04:45:18;;;;;;;42.55;27.17;;;;;;;23.75;100.00;98837.96;1756431;81;21037;-73
2022/09/18 04:47:47;;;;;;;40.05;28.12;;;;;;;23.86;100.00;98809.55;1752124;81;21057;-73
2022/09/18 04:50:15;;;;;;;40.60;24.47;;;;;;;23.91;100.00;98784.82;1736822;81;21032;-73
2022/09/18 04:52:45;;;;;;;31.27;21.12;;;;;;;23.99;100.00;98817.50;1737458;81;21024;-73
2022/09/18 04:55:12;;;;;;;35.00;24.37;;;;;;;24.09;100.00;98804.00;1746158;81;20995;-72
2022/09/18 04:57:41;;;;;;;39.67;25.37;;;;;;;24.13;100.00;98820.48;1739413;81;20988;-73
2022/09/18 05:00:09;;;;;;;37.88;23.22;;;;;;;24.20;100.00;98819.19;1738202;82;20998;-73
2022/09/18 05:02:37;;;;;;;34.30;24.40;;;;;;;24.19;100.00;98820.20;1742774;81;21036;-73
2022/09/18 05:05:07;;;;;;;36.65;22.67;;;;;;;24.10;100.00;98822.17;1723371;82;20981;-72
2022/09/18 05:07:34;;;;;;;31.52;21.93;;;;;;;24.02;100.00;98832.06;1724566;82;21052;-72
2022/09/18 05:10:01;;;;;;;27.40;19.70;;;;;;;24.18;100.00;98831.20;1737564;81;20978;-73
2022/09/18 05:12:30;;;;;;;27.48;18.20;;;;;;;24.23;100.00;98832.44;1745892;80;21095;-73
2022/09/18 05:14:57;;;;;;;27.10;18.02;;;;;;;24.52;100.00;98819.52;1739890;80;21035;-74
2022/09/18 05:17:24;;;;;;;28.05;16.40;;;;;;;24.76;100.00;98829.47;1739612;81;21034;-73
2022/09/18 05:19:53;;;;;;;28.30;16.32;;;;;;;24.94;100.00;98826.73;1740958;81;21031;-73
2022/09/18 05:22:22;;;;;;;25.55;15.80;;;;;;;24.99;100.00;98836.97;1744887;81;21055;-73
2022/09/18 05:24:50;;;;;;;26.55;15.95;;;;;;;24.98;100.00;98845.09;1744839;80;21040;-72
2022/09/18 05:27:17;;;;;;;29.50;15.23;;;;;;;24.87;100.00;98841.72;1752227;80;21023;-72
2022/09/18 05:29:44;;;;;;;26.05;14.63;;;;;;;24.90;100.00;98827.66;1740624;81;21513;-72
2022/09/18 05:32:13;;;;;;;28.25;15.32;;;;;;;24.89;100.00;98836.55;1706384;82;21039;-73
2022/09/18 05:34:41;;;;;;;32.88;14.87;;;;;;;24.89;100.00;98841.82;1737421;81;21681;-72
2022/09/18 05:37:09;;;;;;;28.12;15.05;;;;;;;25.12;100.00;98841.44;1737604;81;21151;-73
2022/09/18 05:39:36;;;;;;;22.67;14.07;;;;;;;25.38;100.00;98848.55;1741067;81;21017;-73
2022/09/18 05:42:04;;;;;;;21.42;13.60;;;;;;;25.44;100.00;98852.69;1682603;84;21037;-73
2022/09/18 05:44:31;;;;;;;20.97;12.90;;;;;;;25.66;100.00;98865.13;1734995;81;21000;-73
2022/09/18 05:46:58;;;;;;;21.87;13.18;;;;;;;25.89;100.00;98860.69;1734195;81;21147;-73
2022/09/18 05:49:27;;;;;;;23.40;12.73;;;;;;;25.93;100.00;98875.11;1740118;81;21006;-73
2022/09/18 05:51:55;;;;;;;25.05;13.00;;;;;;;26.22;100.00;98886.16;1744602;81;21462;-73
2022/09/18 05:54:22;;;;;;;23.27;11.70;;;;;;;26.43;100.00;98888.52;1737784;81;21506;-73
2022/09/18 05:56:50;;;;;;;22.65;12.00;;;;;;;26.51;100.00;98901.98;1740426;81;21063;-73
2022/09/18 05:59:18;;;;;;;24.85;11.78;;;;;;;26.53;100.00;98895.98;1720504;81;21169;-73
2022/09/18 06:01:46;;;;;;;21.05;11.75;;;;;;;26.33;100.00;98889.48;1754977;80;21098;-74
2022/09/18 06:04:23;;;;;;;21.95;12.20;;;;;;;26.25;100.00;98901.59;1741742;80;21030;-73
2022/09/18 06:07:00;;;;;;;19.02;12.47;;;;;;;25.87;100.00;98907.54;1739383;80;21556;-73
2022/09/18 06:09:28;;;;;;;23.38;12.68;;;;;;;25.68;100.00;98915.80;1735660;81;21575;-73
2022/09/18 06:11:55;;;;;;;24.52;13.60;;;;;;;25.75;100.00;98916.09;1736022;82;21571;-72
2022/09/18 06:14:22;;;;;;;21.05;11.43;;;;;;;25.82;100.00;98910.00;1741485;81;21067;-73
2022/09/18 06:16:50;;;;;;;22.87;12.00;;;;;;;26.05;100.00;98920.11;1749312;81;21071;-72
2022/09/18 06:19:17;;;;;;;18.25;10.38;;;;;;;26.46;100.00;98931.65;1739396;81;20996;-73
2022/09/18 06:21:45;;;;;;;24.12;11.12;;;;;;;26.65;100.00;98922.56;1751223;81;21059;-73
2022/09/18 06:24:14;;;;;;;17.70;10.35;;;;;;;26.73;100.00;98927.08;1741098;81;21031;-73
2022/09/18 06:26:51;;;;;;;20.88;11.10;;;;;;;26.51;100.00;98938.41;1726373;81;21044;-72
2022/09/18 06:29:20;;;;;;;21.02;9.83;;;;;;;26.54;100.00;98947.24;1735864;81;21027;-72
2022/09/18 06:31:48;;;;;;;18.48;9.90;;;;;;;26.55;100.00;98955.97;1743459;81;21045;-73
2022/09/18 06:34:21;;;;;;;14.55;10.23;;;;;;;26.71;100.00;98955.52;1736472;81;21058;-72
2022/09/18 06:36:48;;;;;;;18.10;9.30;;;;;;;26.77;100.00;98968.39;1742192;81;21022;-72
2022/09/18 06:39:18;;;;;;;17.30;9.20;;;;;;;26.78;100.00;98985.34;1733404;81;21092;-73
2022/09/18 06:41:46;;;;;;;13.68;8.88;;;;;;;26.88;100.00;98984.86;1738844;81;21037;-73
2022/09/18 06:44:20;;;;;;;14.33;8.33;;;;;;;26.91;100.00;98991.58;1734842;80;21527;-73
2022/09/18 06:46:52;;;;;;;16.27;8.43;;;;;;;27.26;100.00;99003.09;1735741;80;21010;-73
2022/09/18 06:49:23;;;;;;;14.13;8.28;;;;;;;27.42;100.00;98993.31;1744137;81;20991;-73
2022/09/18 06:51:50;;;;;;;16.67;7.55;;;;;;;27.34;100.00;99011.55;1747701;81;21014;-73
2022/09/18 06:54:17;;;;;;;11.35;7.65;;;;;;;27.37;100.00;99015.59;1743886;81;21001;-73
2022/09/18 06:56:46;;;;;;;12.07;7.70;;;;;;;27.44;100.00;99009.77;1738981;81;20992;-73
2022/09/18 06:59:13;;;;;;;13.95;7.22;;;;;;;27.51;100.00;99010.52;1744647;81;21453;-74
2022/09/18 07:01:41;;;;;;;18.75;8.38;;;;;;;27.65;100.00;99008.59;1739561;81;21049;-74
2022/09/18 07:04:12;;;;;;;14.68;7.92;;;;;;;27.39;100.00;99020.16;1744080;81;21866;-74
2022/09/18 07:06:44;;;;;;;11.33;7.60;;;;;;;27.10;100.00;99020.21;1746619;81;21115;-74
2022/09/18 07:09:12;;;;;;;12.93;8.03;;;;;;;27.45;100.00;99003.45;1755352;80;21003;-74
2022/09/18 07:11:58;;;;;;;12.70;7.65;;;;;;;27.40;100.00;99015.70;1740135;81;21043;-73
2022/09/18 07:14:30;;;;;;;13.58;7.80;;;;;;;27.49;100.00;99013.89;1741487;81;21086;-74
2022/09/18 07:16:59;;;;;;;12.05;7.28;;;;;;;27.53;100.00;99015.08;1734588;81;20971;-73
2022/09/18 07:19:26;;;;;;;10.05;7.42;;;;;;;27.57;100.00;99008.36;1740464;81;21353;-73
2022/09/18 07:21:52;;;;;;;11.15;7.25;;;;;;;27.44;100.00;99013.73;1742383;81;21028;-73
2022/09/18 07:24:20;;;;;;;16.42;8.03;;;;;;;27.44;100.00;99008.45;1735053;81;21461;-71
2022/09/18 07:26:47;;;;;;;12.50;7.15;;;;;;;27.49;100.00;99015.20;1738201;82;21066;-72
2022/09/18 07:29:14;;;;;;;11.85;7.97;;;;;;;27.51;100.00;99021.09;1745979;81;21062;-72
2022/09/18 07:31:41;;;;;;;18.42;7.47;;;;;;;27.47;100.00;99026.50;1741976;81;21043;-72
2022/09/18 07:34:11;;;;;;;15.23;7.33;;;;;;;27.71;100.00;99032.03;1742827;81;21060;-72
2022/09/18 07:36:39;;;;;;;12.10;6.70;;;;;;;27.76;100.00;99044.91;1746872;81;20967;-72
2022/09/18 07:39:06;;;;;;;10.48;7.28;;;;;;;27.76;100.00;99042.27;1738659;81;21505;-72
2022/09/18 07:41:35;;;;;;;11.38;7.35;;;;;;;27.87;100.00;99044.75;1735303;81;21000;-72
2022/09/18 07:44:03;;;;;;;8.95;6.05;;;;;;;28.17;100.00;99047.53;1740303;80;21090;-72
2022/09/18 07:46:30;;;;;;;10.30;6.70;;;;;;;28.57;100.00;99056.95;1744068;81;21023;-71
2022/09/18 07:48:58;;;;;;;12.05;6.50;;;;;;;28.68;100.00;99072.09;1750604;81;21541;-73
2022/09/18 07:51:27;;;;;;;9.45;6.60;;;;;;;28.48;100.00;99069.63;1725122;82;21514;-71
2022/09/18 07:53:55;;;;;;;10.93;6.30;;;;;;;28.40;100.00;99071.75;1716338;82;21035;-71
2022/09/18 07:56:24;;;;;;;11.65;6.47;;;;;;;28.45;100.00;99062.14;1716079;82;21024;-72
2022/09/18 07:58:52;;;;;;;11.85;6.53;;;;;;;28.84;100.00;99069.36;1728794;82;20994;-72
2022/09/18 08:01:26;;;;;;;13.48;6.70;;;;;;;29.05;100.00;99077.88;1719301;82;21021;-72
2022/09/18 08:03:57;;;;;;;10.08;6.20;;;;;;;29.14;100.00;99090.62;1731758;81;21000;-73
2022/09/18 08:06:27;;;;;;;9.83;5.53;;;;;;;28.89;100.00;99078.80;1758826;80;21617;-72
2022/09/18 08:08:56;;;;;;;11.43;6.22;;;;;;;29.12;100.00;99081.30;1741197;80;21531;-73
2022/09/18 08:11:25;;;;;;;12.25;5.15;;;;;;;29.25;100.00;99084.27;1766671;80;21032;-73
2022/09/18 08:13:56;;;;;;;8.98;4.90;;;;;;;29.23;100.00;99100.39;1737131;81;21011;-72
2022/09/18 08:16:25;;;;;;;9.28;4.70;;;;;;;29.16;100.00;99086.44;1752845;80;21070;-73
2022/09/18 08:19:06;;;;;;;8.68;4.75;;;;;;;29.06;100.00;99082.16;1689093;83;21037;-73
2022/09/18 08:21:47;;;;;;;11.85;5.58;;;;;;;29.12;100.00;99090.05;1647449;84;21078;-73
2022/09/18 08:24:16;;;;;;;9.90;4.50;;;;;;;29.27;100.00;99093.61;1763008;80;21063;-73
2022/09/18 08:26:45;;;;;;;7.15;4.90;;;;;;;29.55;100.00;99094.87;1745484;80;21047;-73
2022/09/18 08:29:17;;;;;;;8.88;4.50;;;;;;;29.48;100.00;99084.86;1731860;82;21549;-73
2022/09/18 08:31:42;;;;;;;10.58;4.58;;;;;;;29.51;100.00;99084.42;1721844;82;21522;-73
2022/09/18 08:34:10;;;;;;;8.63;4.70;;;;;;;29.54;100.00;99083.46;1746808;81;21165;-73
2022/09/18 08:36:37;;;;;;;9.33;4.17;;;;;;;29.87;100.00;99075.54;1730931;81;21074;-72
2022/09/18 08:39:06;;;;;;;8.03;3.67;;;;;;;29.90;100.00;99092.84;1733346;81;21527;-72
2022/09/18 08:42:18;;;;;;;6.85;3.70;;;;;;;30.12;100.00;99094.42;1732022;82;21007;-72
2022/09/18 08:44:52;;;;;;;4.75;3.52;;;;;;;29.96;100.00;99091.40;1729403;82;21048;-72
2022/09/18 08:47:27;;;;;;;6.50;3.22;;;;;;;29.82;100.00;99095.83;1729288;81;21019;-72
2022/09/18 08:50:08;;;;;;;6.10;3.62;;;;;;;29.92;100.00;99084.94;1728774;82;21050;-72
2022/09/18 08:52:40;;;;;;;8.40;3.65;;;;;;;30.02;100.00;99096.84;1738650;80;21705;-72
2022/09/18 08:55:32;;;;;;;6.40;3.45;;;;;;;29.88;100.00;99098.36;1731280;81;21056;-72
2022/09/18 08:58:19;;;;;;;7.97;3.33;;;;;;;30.02;100.00;99085.70;1733527;81;21007;-72
2022/09/18 09:00:52;;;;;;;5.95;2.90;;;;;;;30.02;100.00;99085.70;1723759;82;21894;-71
2022/09/18 09:03:57;;;;;;;8.15;3.17;;;;;;;29.83;100.00;99086.84;1733620;82;21047;-72
2022/09/18 09:06:48;;;;;;;4.70;2.77;;;;;;;29.44;100.00;99089.83;1746321;81;21054;-72
2022/09/18 09:09:59;;;;;;;7.70;3.10;;;;;;;29.75;100.00;99087.98;1733855;81;21112;-71
2022/09/18 09:12:42;;;;;;;5.70;3.00;;;;;;;29.70;100.00;99093.11;1728744;82;21539;-71
2022/09/18 09:15:40;;;;;;;6.08;2.67;;;;;;;29.77;100.00;99091.21;1665897;84;21555;-72
2022/09/18 09:18:19;;;;;;;6.08;2.62;;;;;;;30.01;100.00;99102.67;1675868;85;21150;-72
2022/09/18 09:20:56;;;;;;;3.83;2.60;;;;;;;29.71;99.47;99113.34;1728108;82;21053;-71
2022/09/18 09:24:09;;;;;;;5.30;2.47;;;;;;;29.87;100.00;99094.11;1729478;82;21476;-72
2022/09/18 09:26:42;;;;;;;4.80;2.70;;;;;;;30.08;100.00;99099.90;1702765;83;21071;-72
2022/09/18 09:29:20;;;;;;;5.97;2.50;;;;;;;30.21;98.16;99104.17;1729833;82;21051;-72
2022/09/18 09:32:10;;;;;;;3.58;2.30;;;;;;;30.41;97.88;99105.98;1737916;82;21552;-72
2022/09/18 09:34:47;;;;;;;5.30;2.12;;;;;;;30.56;97.25;99098.89;1706806;82;21070;-72
2022/09/18 09:37:27;;;;;;;5.47;2.27;;;;;;;30.53;92.54;99100.14;1700750;82;21496;-72
2022/09/18 09:39:58;;;;;;;5.47;2.08;;;;;;;30.71;94.90;99101.85;1726003;82;20984;-72
2022/09/18 09:42:37;;;;;;;6.58;2.12;;;;;;;31.03;95.91;99109.44;1708204;82;21103;-72
2022/09/18 09:45:16;;;;;;;5.05;1.92;;;;;;;30.99;92.08;99115.47;1735591;81;21048;-73
2022/09/18 09:48:19;;;;;;;7.08;2.20;;;;;;;31.12;93.46;99116.52;1701772;82;21032;-72
2022/09/18 09:50:54;;;;;;;7.03;2.40;;;;;;;31.17;86.08;99120.61;1722849;81;21024;-72
2022/09/18 09:53:24;;;;;;;4.92;2.33;;;;;;;30.77;87.91;99124.02;1745026;82;21575;-73
2022/09/18 09:56:04;;;;;;;6.62;2.30;;;;;;;30.66;87.13;99128.85;1736589;81;21413;-72
2022/09/18 09:59:18;;;;;;;9.88;2.37;;;;;;;30.53;88.53;99127.23;1730294;82;21016;-72
2022/09/18 10:02:26;;;;;;;4.45;2.30;;;;;;;30.35;88.07;99118.86;1708988;83;21087;-72
2022/09/18 10:04:58;;;;;;;4.65;2.35;;;;;;;30.62;89.80;99116.55;1716745;83;21043;-72
2022/09/18 10:07:38;;;;;;;4.72;2.40;;;;;;;30.68;89.77;99106.84;1724658;82;21104;-71
2022/09/18 10:10:35;;;;;;;7.35;2.37;;;;;;;30.65;89.67;99100.66;1732127;82;21067;-72
2022/09/18 10:13:20;;;;;;;8.50;2.50;;;;;;;30.87;89.65;99100.85;1738281;81;21056;-72
2022/09/18 10:16:11;;;;;;;8.05;2.25;;;;;;;30.77;89.31;99108.61;1746364;82;21111;-73
2022/09/18 10:18:47;;;;;;;4.60;2.08;;;;;;;30.68;86.77;99100.20;1736748;82;22223;-72
2022/09/18 10:21:18;;;;;;;6.80;2.00;;;;;;;30.70;85.35;99097.59;1734171;82;21061;-72
2022/09/18 10:23:54;;;;;;;6.60;1.82;;;;;;;30.76;85.31;99099.84;1731078;82;21511;-73
2022/09/18 10:26:51;;;;;;;4.72;2.20;;;;;;;30.72;82.92;99090.73;1748175;82;21035;-71
2022/09/18 10:29:19;;;;;;;6.10;2.20;;;;;;;30.77;83.71;99088.69;1733196;82;21055;-73
2022/09/18 10:31:57;;;;;;;5.53;1.85;;;;;;;30.56;82.23;99089.59;1729268;82;21113;-72
2022/09/18 10:34:48;;;;;;;12.85;2.22;;;;;;;30.71;83.92;99089.09;1730907;82;21629;-72
2022/09/18 10:37:34;;;;;;;7.78;2.30;;;;;;;30.73;82.21;99087.02;1727590;82;21034;-73
2022/09/18 10:40:29;;;;;;;9.65;2.08;;;;;;;30.78;82.81;99083.15;1730331;82;21531;-74
2022/09/18 10:42:59;;;;;;;6.05;2.15;;;;;;;30.92;81.12;99089.84;1639947;85;21060;-73
2022/09/18 10:45:29;;;;;;;5.75;2.20;;;;;;;30.91;83.05;99094.05;1655272;86;21015;-74
2022/09/18 10:48:12;;;;;;;7.15;2.08;;;;;;;30.87;81.05;99086.23;1630056;86;21063;-74
2022/09/18 10:50:53;;;;;;;6.42;2.40;;;;;;;30.86;81.41;99082.78;1660598;84;21125;-73
2022/09/18 10:53:31;;;;;;;7.28;1.98;;;;;;;30.92;81.86;99081.88;1642335;85;21043;-74
2022/09/18 10:56:19;;;;;;;6.35;3.20;;;;;;;31.11;82.89;99077.17;1658203;86;21086;-74
2022/09/18 10:58:46;;;;;;;9.95;2.70;;;;;;;31.22;82.57;99080.81;1627201;86;21549;-74
2022/09/18 11:01:14;;;;;;;5.37;2.40;;;;;;;31.32;81.69;99070.37;1658197;86;21126;-73
2022/09/18 11:04:00;;;;;;;6.03;2.95;;;;;;;31.37;81.37;99074.16;1644788;84;21586;-73
2022/09/18 11:06:33;;;;;;;7.40;2.98;;;;;;;31.65;83.37;99070.69;1652211;86;21075;-73
2022/09/18 11:09:07;;;;;;;5.85;2.15;;;;;;;31.70;78.78;99066.27;1645705;86;21100;-74
2022/09/18 11:11:37;;;;;;;5.30;2.15;;;;;;;31.74;79.44;99071.37;1639781;85;21053;-74
2022/09/18 11:14:22;;;;;;;5.10;1.90;;;;;;;31.73;78.68;99057.81;1647052;85;21110;-73
2022/09/18 11:16:58;;;;;;;5.47;2.15;;;;;;;31.42;79.74;99062.30;1631808;88;21113;-74
2022/09/18 11:19:31;;;;;;;8.55;2.50;;;;;;;31.47;80.13;99051.77;1638102;86;21085;-73
2022/09/18 11:22:02;;;;;;;6.78;2.50;;;;;;;31.71;81.16;99057.25;1618290;87;21078;-74
2022/09/18 11:24:35;;;;;;;8.55;2.20;;;;;;;31.71;78.39;99053.26;1597492;88;21107;-73
2022/09/18 11:27:24;;;;;;;5.53;2.50;;;;;;;31.52;78.26;99063.83;1639412;85;21074;-73
2022/09/18 11:29:49;;;;;;;10.10;2.20;;;;;;;31.53;77.10;99050.30;1632614;86;21633;-74
2022/09/18 11:32:24;;;;;;;9.48;2.25;;;;;;;31.71;77.85;99049.27;1659872;86;21408;-74
2022/09/18 11:34:55;;;;;;;8.23;2.72;;;;;;;31.90;80.58;99055.67;1668685;83;21108;-74
2022/09/18 11:37:37;;;;;;;6.55;2.10;;;;;;;31.80;75.73;99042.20;1709622;83;21063;-73
2022/09/18 11:40:31;;;;;;;23.77;3.12;;;;;;;31.78;77.06;99043.77;1702585;83;21083;-73
2022/09/18 11:43:04;;;;;;;7.73;2.03;;;;;;;31.99;79.73;99043.55;1703792;83;21044;-73
2022/09/18 11:45:53;;;;;;;6.90;2.17;;;;;;;32.05;78.37;99044.47;1705320;83;21192;-74
2022/09/18 11:48:33;;;;;;;7.53;2.10;;;;;;;32.05;78.12;99035.95;1711578;83;21108;-74
2022/09/18 11:51:04;;;;;;;5.35;2.02;;;;;;;31.86;77.59;99033.25;1695420;83;21021;-74